sensor_id;sensor_type;location;lat;lon;timestamp;P1;durP1;ratioP1;P2;durP2;ratioP2
17363;SDS011;8799;43.594;13.526;2023-05-07T00:00:22;5.70;;;3.30;;
17363;SDS011;8799;43.594;13.526;2023-05-07T00:02:50;4.00;;;2.80;;
17363;SDS011;8799;43.594;13.526;2023-05-07T00:05:18;5.20;;;2.93;;
17363;SDS011;8799;43.594;13.526;2023-05-07T00:07:47;4.60;;;2.83;;
17363;SDS011;8799;43.594;13.526;2023-05-07T00:10:15;6.93;;;3.53;;
17363;SDS011;8799;43.594;13.526;2023-05-07T00:12:45;6.60;;;3.07;;
17363;SDS011;8799;43.594;13.526;2023-05-07T00:15:13;4.27;;;2.90;;
17363;SDS011;8799;43.594;13.526;2023-05-07T00:17:41;4.03;;;3.03;;
17363;SDS011;8799;43.594;13.526;2023-05-07T00:20:09;4.73;;;3.27;;
17363;SDS011;8799;43.594;13.526;2023-05-07T00:22:38;4.43;;;2.80;;
17363;SDS011;8799;43.594;13.526;2023-05-07T00:25:06;4.43;;;2.80;;
17363;SDS011;8799;43.594;13.526;2023-05-07T00:27:35;4.27;;;2.93;;
17363;SDS011;8799;43.594;13.526;2023-05-07T00:30:06;3.80;;;2.70;;
17363;SDS011;8799;43.594;13.526;2023-05-07T00:32:35;4.30;;;2.93;;
17363;SDS011;8799;43.594;13.526;2023-05-07T00:35:04;5.27;;;3.17;;
17363;SDS011;8799;43.594;13.526;2023-05-07T00:37:33;3.77;;;2.83;;
17363;SDS011;8799;43.594;13.526;2023-05-07T00:40:04;5.87;;;3.60;;
17363;SDS011;8799;43.594;13.526;2023-05-07T00:42:34;4.97;;;3.00;;
17363;SDS011;8799;43.594;13.526;2023-05-07T00:45:02;5.10;;;3.23;;
17363;SDS011;8799;43.594;13.526;2023-05-07T00:47:34;4.77;;;2.80;;
17363;SDS011;8799;43.594;13.526;2023-05-07T00:50:04;4.97;;;2.90;;
17363;SDS011;8799;43.594;13.526;2023-05-07T00:52:32;4.77;;;2.93;;
17363;SDS011;8799;43.594;13.526;2023-05-07T00:55:00;5.60;;;3.00;;
17363;SDS011;8799;43.594;13.526;2023-05-07T00:57:33;4.40;;;2.87;;
17363;SDS011;8799;43.594;13.526;2023-05-07T01:00:07;3.93;;;2.67;;
17363;SDS011;8799;43.594;13.526;2023-05-07T01:02:36;5.53;;;3.27;;
17363;SDS011;8799;43.594;13.526;2023-05-07T01:05:05;4.47;;;2.60;;
17363;SDS011;8799;43.594;13.526;2023-05-07T01:07:35;4.97;;;3.10;;
17363;SDS011;8799;43.594;13.526;2023-05-07T01:10:04;5.57;;;3.37;;
17363;SDS011;8799;43.594;13.526;2023-05-07T01:12:34;5.27;;;3.10;;
17363;SDS011;8799;43.594;13.526;2023-05-07T01:15:09;4.43;;;2.83;;
17363;SDS011;8799;43.594;13.526;2023-05-07T01:17:38;3.90;;;2.80;;
17363;SDS011;8799;43.594;13.526;2023-05-07T01:20:08;6.03;;;3.20;;
17363;SDS011;8799;43.594;13.526;2023-05-07T01:22:38;5.33;;;3.30;;
17363;SDS011;8799;43.594;13.526;2023-05-07T01:25:07;5.27;;;2.63;;
17363;SDS011;8799;43.594;13.526;2023-05-07T01:27:35;5.57;;;3.20;;
17363;SDS011;8799;43.594;13.526;2023-05-07T01:30:03;5.23;;;2.90;;
17363;SDS011;8799;43.594;13.526;2023-05-07T01:32:34;5.30;;;3.43;;
17363;SDS011;8799;43.594;13.526;2023-05-07T01:35:05;3.33;;;2.60;;
17363;SDS011;8799;43.594;13.526;2023-05-07T01:37:38;4.37;;;2.80;;
17363;SDS011;8799;43.594;13.526;2023-05-07T01:40:08;5.67;;;3.27;;
17363;SDS011;8799;43.594;13.526;2023-05-07T01:42:36;4.47;;;2.87;;
17363;SDS011;8799;43.594;13.526;2023-05-07T01:45:05;4.40;;;2.73;;
17363;SDS011;8799;43.594;13.526;2023-05-07T01:47:34;5.57;;;3.27;;
17363;SDS011;8799;43.594;13.526;2023-05-07T01:50:05;5.03;;;2.83;;
17363;SDS011;8799;43.594;13.526;2023-05-07T01:52:35;6.23;;;3.40;;
17363;SDS011;8799;43.594;13.526;2023-05-07T01:55:06;5.07;;;3.20;;
17363;SDS011;8799;43.594;13.526;2023-05-07T01:57:34;4.90;;;2.93;;
17363;SDS011;8799;43.594;13.526;2023-05-07T02:00:03;6.97;;;3.37;;
17363;SDS011;8799;43.594;13.526;2023-05-07T02:02:31;7.70;;;3.10;;
17363;SDS011;8799;43.594;13.526;2023-05-07T02:04:59;4.17;;;2.90;;
17363;SDS011;8799;43.594;13.526;2023-05-07T02:07:28;7.50;;;3.40;;
17363;SDS011;8799;43.594;13.526;2023-05-07T02:09:57;6.30;;;3.30;;
17363;SDS011;8799;43.594;13.526;2023-05-07T02:12:25;4.37;;;3.03;;
17363;SDS011;8799;43.594;13.526;2023-05-07T02:14:53;8.43;;;3.00;;
17363;SDS011;8799;43.594;13.526;2023-05-07T02:17:21;4.67;;;2.90;;
17363;SDS011;8799;43.594;13.526;2023-05-07T02:19:49;4.03;;;2.83;;
17363;SDS011;8799;43.594;13.526;2023-05-07T02:22:17;5.00;;;2.70;;
17363;SDS011;8799;43.594;13.526;2023-05-07T02:24:46;6.03;;;3.00;;
17363;SDS011;8799;43.594;13.526;2023-05-07T02:27:15;4.03;;;2.70;;
17363;SDS011;8799;43.594;13.526;2023-05-07T02:29:44;6.23;;;2.90;;
17363;SDS011;8799;43.594;13.526;2023-05-07T02:32:12;3.97;;;2.50;;
17363;SDS011;8799;43.594;13.526;2023-05-07T02:34:40;15.43;;;3.50;;
17363;SDS011;8799;43.594;13.526;2023-05-07T02:37:08;4.97;;;2.80;;
17363;SDS011;8799;43.594;13.526;2023-05-07T02:39:36;2.80;;;2.10;;
17363;SDS011;8799;43.594;13.526;2023-05-07T02:42:04;4.10;;;2.70;;
17363;SDS011;8799;43.594;13.526;2023-05-07T02:44:33;5.17;;;3.10;;
17363;SDS011;8799;43.594;13.526;2023-05-07T02:47:01;4.13;;;2.90;;
17363;SDS011;8799;43.594;13.526;2023-05-07T02:49:30;4.93;;;2.83;;
17363;SDS011;8799;43.594;13.526;2023-05-07T02:51:58;6.07;;;2.90;;
17363;SDS011;8799;43.594;13.526;2023-05-07T02:54:25;3.87;;;2.80;;
17363;SDS011;8799;43.594;13.526;2023-05-07T02:56:53;4.57;;;3.20;;
17363;SDS011;8799;43.594;13.526;2023-05-07T02:59:21;4.97;;;2.90;;
17363;SDS011;8799;43.594;13.526;2023-05-07T03:01:51;4.60;;;2.60;;
17363;SDS011;8799;43.594;13.526;2023-05-07T03:04:19;3.87;;;2.60;;
17363;SDS011;8799;43.594;13.526;2023-05-07T03:06:47;4.90;;;2.90;;
17363;SDS011;8799;43.594;13.526;2023-05-07T03:09:14;4.87;;;3.00;;
17363;SDS011;8799;43.594;13.526;2023-05-07T03:11:42;4.63;;;2.90;;
17363;SDS011;8799;43.594;13.526;2023-05-07T03:14:11;4.40;;;2.87;;
17363;SDS011;8799;43.594;13.526;2023-05-07T03:16:39;3.90;;;2.80;;
17363;SDS011;8799;43.594;13.526;2023-05-07T03:19:12;4.87;;;3.10;;
17363;SDS011;8799;43.594;13.526;2023-05-07T03:21:40;4.93;;;2.97;;
17363;SDS011;8799;43.594;13.526;2023-05-07T03:24:08;3.93;;;2.77;;
17363;SDS011;8799;43.594;13.526;2023-05-07T03:26:36;6.27;;;3.03;;
17363;SDS011;8799;43.594;13.526;2023-05-07T03:29:04;4.77;;;2.87;;
17363;SDS011;8799;43.594;13.526;2023-05-07T03:31:32;3.93;;;2.30;;
17363;SDS011;8799;43.594;13.526;2023-05-07T03:33:59;3.70;;;2.50;;
17363;SDS011;8799;43.594;13.526;2023-05-07T03:36:29;5.20;;;2.93;;
17363;SDS011;8799;43.594;13.526;2023-05-07T03:38:57;4.00;;;2.33;;
17363;SDS011;8799;43.594;13.526;2023-05-07T03:41:25;4.83;;;2.93;;
17363;SDS011;8799;43.594;13.526;2023-05-07T03:43:56;5.90;;;3.57;;
17363;SDS011;8799;43.594;13.526;2023-05-07T03:46:24;4.60;;;2.70;;
17363;SDS011;8799;43.594;13.526;2023-05-07T03:48:53;5.23;;;3.13;;
17363;SDS011;8799;43.594;13.526;2023-05-07T03:51:21;4.70;;;2.70;;
17363;SDS011;8799;43.594;13.526;2023-05-07T03:53:51;4.37;;;2.70;;
17363;SDS011;8799;43.594;13.526;2023-05-07T03:56:19;4.73;;;2.67;;
17363;SDS011;8799;43.594;13.526;2023-05-07T03:58:48;3.67;;;2.70;;
17363;SDS011;8799;43.594;13.526;2023-05-07T04:01:15;4.53;;;3.20;;
17363;SDS011;8799;43.594;13.526;2023-05-07T04:03:43;4.67;;;3.20;;
17363;SDS011;8799;43.594;13.526;2023-05-07T04:06:11;4.20;;;2.67;;
17363;SDS011;8799;43.594;13.526;2023-05-07T04:08:39;4.57;;;2.63;;
17363;SDS011;8799;43.594;13.526;2023-05-07T04:11:09;4.60;;;2.67;;
17363;SDS011;8799;43.594;13.526;2023-05-07T04:13:37;4.70;;;2.67;;
17363;SDS011;8799;43.594;13.526;2023-05-07T04:16:05;4.70;;;2.97;;
17363;SDS011;8799;43.594;13.526;2023-05-07T04:18:33;4.07;;;2.50;;
17363;SDS011;8799;43.594;13.526;2023-05-07T04:21:01;3.47;;;2.53;;
17363;SDS011;8799;43.594;13.526;2023-05-07T04:23:29;5.07;;;2.90;;
17363;SDS011;8799;43.594;13.526;2023-05-07T04:25:57;4.13;;;2.50;;
17363;SDS011;8799;43.594;13.526;2023-05-07T04:28:27;4.20;;;2.57;;
17363;SDS011;8799;43.594;13.526;2023-05-07T04:30:57;4.10;;;2.77;;
17363;SDS011;8799;43.594;13.526;2023-05-07T04:33:25;4.27;;;2.83;;
17363;SDS011;8799;43.594;13.526;2023-05-07T04:35:53;4.20;;;2.97;;
17363;SDS011;8799;43.594;13.526;2023-05-07T04:38:20;4.60;;;3.07;;
17363;SDS011;8799;43.594;13.526;2023-05-07T04:40:49;4.87;;;2.90;;
17363;SDS011;8799;43.594;13.526;2023-05-07T04:43:17;3.63;;;2.70;;
17363;SDS011;8799;43.594;13.526;2023-05-07T04:45:46;5.33;;;2.90;;
17363;SDS011;8799;43.594;13.526;2023-05-07T04:48:14;3.97;;;2.60;;
17363;SDS011;8799;43.594;13.526;2023-05-07T04:50:46;4.67;;;2.97;;
17363;SDS011;8799;43.594;13.526;2023-05-07T04:53:15;4.33;;;2.57;;
17363;SDS011;8799;43.594;13.526;2023-05-07T04:55:44;4.77;;;3.07;;
17363;SDS011;8799;43.594;13.526;2023-05-07T04:58:12;3.83;;;2.63;;
17363;SDS011;8799;43.594;13.526;2023-05-07T05:00:41;5.23;;;2.67;;
17363;SDS011;8799;43.594;13.526;2023-05-07T05:03:11;4.87;;;2.87;;
17363;SDS011;8799;43.594;13.526;2023-05-07T05:05:39;3.40;;;2.70;;
17363;SDS011;8799;43.594;13.526;2023-05-07T05:08:06;6.33;;;2.63;;
17363;SDS011;8799;43.594;13.526;2023-05-07T05:10:34;5.07;;;2.83;;
17363;SDS011;8799;43.594;13.526;2023-05-07T05:13:02;3.30;;;2.50;;
17363;SDS011;8799;43.594;13.526;2023-05-07T05:15:30;5.33;;;2.83;;
17363;SDS011;8799;43.594;13.526;2023-05-07T05:17:58;5.90;;;2.93;;
17363;SDS011;8799;43.594;13.526;2023-05-07T05:20:28;4.23;;;2.73;;
17363;SDS011;8799;43.594;13.526;2023-05-07T05:22:56;6.77;;;3.20;;
17363;SDS011;8799;43.594;13.526;2023-05-07T05:25:24;4.63;;;3.03;;
17363;SDS011;8799;43.594;13.526;2023-05-07T05:27:52;6.47;;;3.03;;
17363;SDS011;8799;43.594;13.526;2023-05-07T05:30:20;6.03;;;3.13;;
17363;SDS011;8799;43.594;13.526;2023-05-07T05:32:49;5.27;;;3.40;;
17363;SDS011;8799;43.594;13.526;2023-05-07T05:35:16;3.93;;;2.80;;
17363;SDS011;8799;43.594;13.526;2023-05-07T05:37:47;7.00;;;3.27;;
17363;SDS011;8799;43.594;13.526;2023-05-07T05:40:14;6.73;;;3.17;;
17363;SDS011;8799;43.594;13.526;2023-05-07T05:42:43;5.93;;;2.97;;
17363;SDS011;8799;43.594;13.526;2023-05-07T05:45:11;4.53;;;2.97;;
17363;SDS011;8799;43.594;13.526;2023-05-07T05:47:40;7.37;;;3.23;;
17363;SDS011;8799;43.594;13.526;2023-05-07T05:50:11;7.17;;;3.30;;
17363;SDS011;8799;43.594;13.526;2023-05-07T05:52:39;5.90;;;3.07;;
17363;SDS011;8799;43.594;13.526;2023-05-07T05:55:09;9.77;;;3.60;;
17363;SDS011;8799;43.594;13.526;2023-05-07T05:57:38;6.73;;;3.30;;
17363;SDS011;8799;43.594;13.526;2023-05-07T06:00:06;9.70;;;3.20;;
17363;SDS011;8799;43.594;13.526;2023-05-07T06:02:36;13.50;;;3.50;;
17363;SDS011;8799;43.594;13.526;2023-05-07T06:05:04;8.67;;;3.50;;
17363;SDS011;8799;43.594;13.526;2023-05-07T06:07:33;7.87;;;4.10;;
17363;SDS011;8799;43.594;13.526;2023-05-07T06:10:04;6.57;;;3.00;;
17363;SDS011;8799;43.594;13.526;2023-05-07T06:12:35;5.33;;;3.30;;
17363;SDS011;8799;43.594;13.526;2023-05-07T06:15:03;5.30;;;3.17;;
17363;SDS011;8799;43.594;13.526;2023-05-07T06:17:32;4.50;;;2.97;;
17363;SDS011;8799;43.594;13.526;2023-05-07T06:20:00;7.17;;;3.43;;
17363;SDS011;8799;43.594;13.526;2023-05-07T06:22:27;7.70;;;3.23;;
17363;SDS011;8799;43.594;13.526;2023-05-07T06:24:55;4.60;;;3.07;;
17363;SDS011;8799;43.594;13.526;2023-05-07T06:27:46;5.37;;;3.27;;
17363;SDS011;8799;43.594;13.526;2023-05-07T06:30:15;7.73;;;3.50;;
17363;SDS011;8799;43.594;13.526;2023-05-07T06:35:19;5.90;;;3.03;;
17363;SDS011;8799;43.594;13.526;2023-05-07T06:37:48;4.80;;;3.13;;
17363;SDS011;8799;43.594;13.526;2023-05-07T06:40:16;3.87;;;2.87;;
17363;SDS011;8799;43.594;13.526;2023-05-07T06:42:46;6.50;;;3.37;;
17363;SDS011;8799;43.594;13.526;2023-05-07T06:45:14;4.83;;;3.03;;
17363;SDS011;8799;43.594;13.526;2023-05-07T06:47:42;5.80;;;3.30;;
17363;SDS011;8799;43.594;13.526;2023-05-07T06:50:11;4.43;;;2.90;;
17363;SDS011;8799;43.594;13.526;2023-05-07T06:52:41;4.50;;;2.93;;
17363;SDS011;8799;43.594;13.526;2023-05-07T06:55:09;5.20;;;3.40;;
17363;SDS011;8799;43.594;13.526;2023-05-07T06:57:38;6.90;;;3.50;;
17363;SDS011;8799;43.594;13.526;2023-05-07T07:00:09;9.07;;;3.53;;
17363;SDS011;8799;43.594;13.526;2023-05-07T07:02:38;8.03;;;3.27;;
17363;SDS011;8799;43.594;13.526;2023-05-07T07:05:06;8.07;;;3.37;;
17363;SDS011;8799;43.594;13.526;2023-05-07T07:07:35;4.40;;;2.80;;
17363;SDS011;8799;43.594;13.526;2023-05-07T07:10:07;5.57;;;3.30;;
17363;SDS011;8799;43.594;13.526;2023-05-07T07:12:36;8.17;;;3.50;;
17363;SDS011;8799;43.594;13.526;2023-05-07T07:15:04;5.53;;;2.63;;
17363;SDS011;8799;43.594;13.526;2023-05-07T07:17:35;4.63;;;3.00;;
17363;SDS011;8799;43.594;13.526;2023-05-07T07:20:03;5.40;;;2.77;;
17363;SDS011;8799;43.594;13.526;2023-05-07T07:22:32;4.57;;;2.63;;
17363;SDS011;8799;43.594;13.526;2023-05-07T07:25:00;4.27;;;2.60;;
17363;SDS011;8799;43.594;13.526;2023-05-07T07:27:28;4.60;;;2.50;;
17363;SDS011;8799;43.594;13.526;2023-05-07T07:29:56;11.87;;;2.83;;
17363;SDS011;8799;43.594;13.526;2023-05-07T07:32:24;9.53;;;2.80;;
17363;SDS011;8799;43.594;13.526;2023-05-07T07:34:54;4.77;;;2.70;;
17363;SDS011;8799;43.594;13.526;2023-05-07T07:37:22;3.03;;;2.00;;
17363;SDS011;8799;43.594;13.526;2023-05-07T07:39:50;6.30;;;2.33;;
17363;SDS011;8799;43.594;13.526;2023-05-07T07:42:18;10.93;;;2.60;;
17363;SDS011;8799;43.594;13.526;2023-05-07T07:44:46;4.10;;;2.37;;
17363;SDS011;8799;43.594;13.526;2023-05-07T07:47:15;3.90;;;2.47;;
17363;SDS011;8799;43.594;13.526;2023-05-07T07:49:43;4.57;;;2.50;;
17363;SDS011;8799;43.594;13.526;2023-05-07T07:52:12;7.07;;;2.50;;
17363;SDS011;8799;43.594;13.526;2023-05-07T07:54:40;7.53;;;3.00;;
17363;SDS011;8799;43.594;13.526;2023-05-07T07:57:08;8.63;;;3.40;;
17363;SDS011;8799;43.594;13.526;2023-05-07T07:59:36;4.23;;;2.50;;
17363;SDS011;8799;43.594;13.526;2023-05-07T08:02:06;8.90;;;2.80;;
17363;SDS011;8799;43.594;13.526;2023-05-07T08:04:37;7.43;;;2.73;;
17363;SDS011;8799;43.594;13.526;2023-05-07T08:07:05;5.03;;;2.70;;
17363;SDS011;8799;43.594;13.526;2023-05-07T08:09:35;4.17;;;2.60;;
17363;SDS011;8799;43.594;13.526;2023-05-07T08:12:04;9.87;;;3.20;;
17363;SDS011;8799;43.594;13.526;2023-05-07T08:14:31;4.67;;;2.70;;
17363;SDS011;8799;43.594;13.526;2023-05-07T08:16:59;6.23;;;3.07;;
17363;SDS011;8799;43.594;13.526;2023-05-07T08:19:27;6.30;;;3.00;;
17363;SDS011;8799;43.594;13.526;2023-05-07T08:21:55;5.60;;;2.90;;
17363;SDS011;8799;43.594;13.526;2023-05-07T08:24:24;7.40;;;2.97;;
17363;SDS011;8799;43.594;13.526;2023-05-07T08:26:53;4.77;;;2.90;;
17363;SDS011;8799;43.594;13.526;2023-05-07T08:29:21;5.30;;;3.03;;
17363;SDS011;8799;43.594;13.526;2023-05-07T08:31:48;7.30;;;2.60;;
17363;SDS011;8799;43.594;13.526;2023-05-07T08:34:16;5.43;;;3.10;;
17363;SDS011;8799;43.594;13.526;2023-05-07T08:36:45;5.53;;;3.00;;
17363;SDS011;8799;43.594;13.526;2023-05-07T08:39:15;4.07;;;2.70;;
17363;SDS011;8799;43.594;13.526;2023-05-07T08:41:44;7.10;;;3.00;;
17363;SDS011;8799;43.594;13.526;2023-05-07T08:44:14;6.17;;;3.07;;
17363;SDS011;8799;43.594;13.526;2023-05-07T08:46:47;5.20;;;3.13;;
17363;SDS011;8799;43.594;13.526;2023-05-07T08:49:19;4.83;;;2.90;;
17363;SDS011;8799;43.594;13.526;2023-05-07T08:51:47;4.60;;;3.00;;
17363;SDS011;8799;43.594;13.526;2023-05-07T08:54:20;5.50;;;3.03;;
17363;SDS011;8799;43.594;13.526;2023-05-07T08:57:05;4.03;;;2.70;;
17363;SDS011;8799;43.594;13.526;2023-05-07T09:00:05;4.57;;;2.90;;
17363;SDS011;8799;43.594;13.526;2023-05-07T09:03:04;3.53;;;2.50;;
17363;SDS011;8799;43.594;13.526;2023-05-07T09:05:52;7.90;;;2.93;;
17363;SDS011;8799;43.594;13.526;2023-05-07T09:08:23;5.33;;;2.93;;
17363;SDS011;8799;43.594;13.526;2023-05-07T09:11:14;5.20;;;2.57;;
17363;SDS011;8799;43.594;13.526;2023-05-07T09:14:06;5.77;;;2.67;;
17363;SDS011;8799;43.594;13.526;2023-05-07T09:16:35;5.37;;;2.43;;
17363;SDS011;8799;43.594;13.526;2023-05-07T09:19:03;4.13;;;2.23;;
17363;SDS011;8799;43.594;13.526;2023-05-07T09:21:31;4.90;;;2.60;;
17363;SDS011;8799;43.594;13.526;2023-05-07T09:23:59;7.40;;;2.80;;
17363;SDS011;8799;43.594;13.526;2023-05-07T09:26:27;7.73;;;2.60;;
17363;SDS011;8799;43.594;13.526;2023-05-07T09:28:55;4.90;;;2.20;;
17363;SDS011;8799;43.594;13.526;2023-05-07T09:31:23;3.70;;;2.50;;
17363;SDS011;8799;43.594;13.526;2023-05-07T09:33:53;4.53;;;2.57;;
17363;SDS011;8799;43.594;13.526;2023-05-07T09:36:21;6.13;;;3.43;;
17363;SDS011;8799;43.594;13.526;2023-05-07T09:38:49;5.00;;;2.83;;
17363;SDS011;8799;43.594;13.526;2023-05-07T09:41:17;4.60;;;2.70;;
17363;SDS011;8799;43.594;13.526;2023-05-07T09:43:46;6.67;;;3.00;;
17363;SDS011;8799;43.594;13.526;2023-05-07T09:46:28;6.63;;;3.20;;
17363;SDS011;8799;43.594;13.526;2023-05-07T09:48:59;5.00;;;3.00;;
17363;SDS011;8799;43.594;13.526;2023-05-07T09:51:30;8.00;;;2.97;;
17363;SDS011;8799;43.594;13.526;2023-05-07T09:54:01;5.23;;;3.40;;
17363;SDS011;8799;43.594;13.526;2023-05-07T09:56:31;6.50;;;3.17;;
17363;SDS011;8799;43.594;13.526;2023-05-07T09:59:00;5.87;;;2.80;;
17363;SDS011;8799;43.594;13.526;2023-05-07T10:01:30;5.07;;;2.97;;
17363;SDS011;8799;43.594;13.526;2023-05-07T10:04:01;5.63;;;2.97;;
17363;SDS011;8799;43.594;13.526;2023-05-07T10:06:29;4.77;;;2.87;;
17363;SDS011;8799;43.594;13.526;2023-05-07T10:08:58;7.20;;;2.80;;
17363;SDS011;8799;43.594;13.526;2023-05-07T10:11:26;3.53;;;2.67;;
17363;SDS011;8799;43.594;13.526;2023-05-07T10:13:59;3.67;;;2.30;;
17363;SDS011;8799;43.594;13.526;2023-05-07T10:16:28;4.67;;;2.90;;
17363;SDS011;8799;43.594;13.526;2023-05-07T10:19:03;4.87;;;2.80;;
17363;SDS011;8799;43.594;13.526;2023-05-07T10:21:32;5.83;;;2.60;;
17363;SDS011;8799;43.594;13.526;2023-05-07T10:24:05;3.53;;;2.30;;
17363;SDS011;8799;43.594;13.526;2023-05-07T10:26:39;4.37;;;2.80;;
17363;SDS011;8799;43.594;13.526;2023-05-07T10:29:11;4.70;;;2.80;;
17363;SDS011;8799;43.594;13.526;2023-05-07T10:31:47;6.60;;;2.67;;
17363;SDS011;8799;43.594;13.526;2023-05-07T10:34:23;3.50;;;2.60;;
17363;SDS011;8799;43.594;13.526;2023-05-07T10:36:53;3.80;;;2.47;;
17363;SDS011;8799;43.594;13.526;2023-05-07T10:39:23;4.17;;;2.50;;
17363;SDS011;8799;43.594;13.526;2023-05-07T10:41:51;3.20;;;2.20;;
17363;SDS011;8799;43.594;13.526;2023-05-07T10:44:26;6.70;;;2.83;;
17363;SDS011;8799;43.594;13.526;2023-05-07T10:47:06;4.83;;;2.80;;
17363;SDS011;8799;43.594;13.526;2023-05-07T10:49:38;4.27;;;2.77;;
17363;SDS011;8799;43.594;13.526;2023-05-07T10:52:43;4.23;;;2.53;;
17363;SDS011;8799;43.594;13.526;2023-05-07T10:55:21;4.43;;;2.70;;
17363;SDS011;8799;43.594;13.526;2023-05-07T10:57:50;4.50;;;2.77;;
17363;SDS011;8799;43.594;13.526;2023-05-07T11:03:10;4.40;;;2.80;;
17363;SDS011;8799;43.594;13.526;2023-05-07T11:05:41;3.90;;;2.27;;
17363;SDS011;8799;43.594;13.526;2023-05-07T11:08:09;3.63;;;2.27;;
17363;SDS011;8799;43.594;13.526;2023-05-07T11:10:47;3.97;;;2.73;;
17363;SDS011;8799;43.594;13.526;2023-05-07T11:13:16;3.53;;;2.30;;
17363;SDS011;8799;43.594;13.526;2023-05-07T11:15:46;4.37;;;2.70;;
17363;SDS011;8799;43.594;13.526;2023-05-07T11:18:15;5.23;;;2.40;;
17363;SDS011;8799;43.594;13.526;2023-05-07T11:20:53;3.80;;;2.40;;
17363;SDS011;8799;43.594;13.526;2023-05-07T11:26:24;4.23;;;2.50;;
17363;SDS011;8799;43.594;13.526;2023-05-07T11:28:53;4.37;;;2.30;;
17363;SDS011;8799;43.594;13.526;2023-05-07T11:31:22;3.87;;;2.50;;
17363;SDS011;8799;43.594;13.526;2023-05-07T11:33:52;3.23;;;2.50;;
17363;SDS011;8799;43.594;13.526;2023-05-07T11:36:22;5.97;;;2.67;;
17363;SDS011;8799;43.594;13.526;2023-05-07T11:38:51;5.50;;;2.53;;
17363;SDS011;8799;43.594;13.526;2023-05-07T11:41:19;4.33;;;2.50;;
17363;SDS011;8799;43.594;13.526;2023-05-07T11:43:53;6.43;;;3.13;;
17363;SDS011;8799;43.594;13.526;2023-05-07T11:46:26;3.47;;;2.57;;
17363;SDS011;8799;43.594;13.526;2023-05-07T11:48:54;3.03;;;2.23;;
17363;SDS011;8799;43.594;13.526;2023-05-07T11:51:25;3.53;;;2.43;;
17363;SDS011;8799;43.594;13.526;2023-05-07T11:53:53;3.47;;;2.17;;
17363;SDS011;8799;43.594;13.526;2023-05-07T11:56:21;3.30;;;2.20;;
17363;SDS011;8799;43.594;13.526;2023-05-07T11:58:49;4.20;;;2.37;;
17363;SDS011;8799;43.594;13.526;2023-05-07T12:01:17;3.97;;;2.33;;
17363;SDS011;8799;43.594;13.526;2023-05-07T12:03:45;3.10;;;1.97;;
17363;SDS011;8799;43.594;13.526;2023-05-07T12:06:14;4.77;;;2.40;;
17363;SDS011;8799;43.594;13.526;2023-05-07T12:08:45;4.43;;;2.23;;
17363;SDS011;8799;43.594;13.526;2023-05-07T12:11:14;3.50;;;2.27;;
17363;SDS011;8799;43.594;13.526;2023-05-07T12:13:43;6.00;;;2.37;;
17363;SDS011;8799;43.594;13.526;2023-05-07T12:16:11;5.20;;;2.13;;
17363;SDS011;8799;43.594;13.526;2023-05-07T12:18:40;6.17;;;2.27;;
17363;SDS011;8799;43.594;13.526;2023-05-07T12:21:10;4.23;;;2.37;;
17363;SDS011;8799;43.594;13.526;2023-05-07T12:23:39;5.23;;;2.40;;
17363;SDS011;8799;43.594;13.526;2023-05-07T12:26:09;3.93;;;2.03;;
17363;SDS011;8799;43.594;13.526;2023-05-07T12:28:38;6.43;;;2.20;;
17363;SDS011;8799;43.594;13.526;2023-05-07T12:31:06;2.73;;;1.73;;
17363;SDS011;8799;43.594;13.526;2023-05-07T12:33:35;3.87;;;2.40;;
17363;SDS011;8799;43.594;13.526;2023-05-07T12:36:03;3.30;;;2.17;;
17363;SDS011;8799;43.594;13.526;2023-05-07T12:38:37;3.20;;;1.90;;
17363;SDS011;8799;43.594;13.526;2023-05-07T12:41:06;3.37;;;2.20;;
17363;SDS011;8799;43.594;13.526;2023-05-07T12:43:36;7.87;;;2.40;;
17363;SDS011;8799;43.594;13.526;2023-05-07T12:46:04;3.77;;;2.07;;
17363;SDS011;8799;43.594;13.526;2023-05-07T12:48:35;2.83;;;1.87;;
17363;SDS011;8799;43.594;13.526;2023-05-07T12:51:04;2.47;;;1.97;;
17363;SDS011;8799;43.594;13.526;2023-05-07T12:53:32;2.17;;;1.93;;
17363;SDS011;8799;43.594;13.526;2023-05-07T12:56:07;2.90;;;2.03;;
17363;SDS011;8799;43.594;13.526;2023-05-07T12:58:36;5.00;;;2.30;;
17363;SDS011;8799;43.594;13.526;2023-05-07T13:01:04;2.17;;;1.73;;
17363;SDS011;8799;43.594;13.526;2023-05-07T13:03:33;5.67;;;2.03;;
17363;SDS011;8799;43.594;13.526;2023-05-07T13:06:04;2.63;;;1.67;;
17363;SDS011;8799;43.594;13.526;2023-05-07T13:08:35;2.70;;;1.70;;
17363;SDS011;8799;43.594;13.526;2023-05-07T13:11:06;1.67;;;1.50;;
17363;SDS011;8799;43.594;13.526;2023-05-07T13:13:38;2.23;;;1.60;;
17363;SDS011;8799;43.594;13.526;2023-05-07T13:16:08;2.83;;;1.77;;
17363;SDS011;8799;43.594;13.526;2023-05-07T13:18:37;2.27;;;1.80;;
17363;SDS011;8799;43.594;13.526;2023-05-07T13:21:05;4.30;;;1.60;;
17363;SDS011;8799;43.594;13.526;2023-05-07T13:23:33;3.43;;;1.70;;
17363;SDS011;8799;43.594;13.526;2023-05-07T13:26:03;3.10;;;1.50;;
17363;SDS011;8799;43.594;13.526;2023-05-07T13:28:32;1.73;;;1.53;;
17363;SDS011;8799;43.594;13.526;2023-05-07T13:31:01;2.70;;;1.83;;
17363;SDS011;8799;43.594;13.526;2023-05-07T13:33:30;3.87;;;2.03;;
17363;SDS011;8799;43.594;13.526;2023-05-07T13:35:58;3.13;;;1.90;;
17363;SDS011;8799;43.594;13.526;2023-05-07T13:38:25;4.17;;;2.00;;
17363;SDS011;8799;43.594;13.526;2023-05-07T13:40:53;1.97;;;1.70;;
17363;SDS011;8799;43.594;13.526;2023-05-07T13:43:21;2.30;;;1.90;;
17363;SDS011;8799;43.594;13.526;2023-05-07T13:45:49;2.73;;;1.80;;
17363;SDS011;8799;43.594;13.526;2023-05-07T13:48:19;3.20;;;1.90;;
17363;SDS011;8799;43.594;13.526;2023-05-07T13:50:46;2.77;;;1.80;;
17363;SDS011;8799;43.594;13.526;2023-05-07T13:53:14;3.33;;;2.00;;
17363;SDS011;8799;43.594;13.526;2023-05-07T13:55:43;3.47;;;1.80;;
17363;SDS011;8799;43.594;13.526;2023-05-07T13:58:12;2.83;;;2.00;;
17363;SDS011;8799;43.594;13.526;2023-05-07T14:00:39;2.60;;;1.70;;
17363;SDS011;8799;43.594;13.526;2023-05-07T14:03:07;3.33;;;2.13;;
17363;SDS011;8799;43.594;13.526;2023-05-07T14:05:37;2.53;;;1.93;;
17363;SDS011;8799;43.594;13.526;2023-05-07T14:08:04;3.23;;;2.13;;
17363;SDS011;8799;43.594;13.526;2023-05-07T14:10:33;2.53;;;1.80;;
17363;SDS011;8799;43.594;13.526;2023-05-07T14:13:01;3.33;;;2.10;;
17363;SDS011;8799;43.594;13.526;2023-05-07T14:15:29;2.83;;;2.07;;
17363;SDS011;8799;43.594;13.526;2023-05-07T14:17:57;6.70;;;1.83;;
17363;SDS011;8799;43.594;13.526;2023-05-07T14:20:25;2.60;;;1.67;;
17363;SDS011;8799;43.594;13.526;2023-05-07T14:22:55;2.27;;;1.80;;
17363;SDS011;8799;43.594;13.526;2023-05-07T14:25:23;3.40;;;2.00;;
17363;SDS011;8799;43.594;13.526;2023-05-07T14:27:51;3.03;;;1.93;;
17363;SDS011;8799;43.594;13.526;2023-05-07T14:30:19;4.63;;;2.00;;
17363;SDS011;8799;43.594;13.526;2023-05-07T14:32:47;4.90;;;2.00;;
17363;SDS011;8799;43.594;13.526;2023-05-07T14:35:16;2.60;;;1.80;;
17363;SDS011;8799;43.594;13.526;2023-05-07T14:37:44;3.80;;;1.80;;
17363;SDS011;8799;43.594;13.526;2023-05-07T14:40:14;2.87;;;2.10;;
17363;SDS011;8799;43.594;13.526;2023-05-07T14:42:42;2.70;;;1.90;;
17363;SDS011;8799;43.594;13.526;2023-05-07T14:45:10;2.93;;;1.87;;
17363;SDS011;8799;43.594;13.526;2023-05-07T14:47:37;5.57;;;2.30;;
17363;SDS011;8799;43.594;13.526;2023-05-07T14:50:06;2.57;;;1.80;;
17363;SDS011;8799;43.594;13.526;2023-05-07T14:52:34;4.23;;;2.20;;
17363;SDS011;8799;43.594;13.526;2023-05-07T14:55:02;4.07;;;1.90;;
17363;SDS011;8799;43.594;13.526;2023-05-07T14:57:32;2.63;;;2.03;;
17363;SDS011;8799;43.594;13.526;2023-05-07T15:00:00;3.63;;;1.90;;
17363;SDS011;8799;43.594;13.526;2023-05-07T15:02:29;2.60;;;1.90;;
17363;SDS011;8799;43.594;13.526;2023-05-07T15:04:58;3.77;;;1.80;;
17363;SDS011;8799;43.594;13.526;2023-05-07T15:07:26;3.33;;;2.07;;
17363;SDS011;8799;43.594;13.526;2023-05-07T15:09:53;2.63;;;2.03;;